sensor_id;sensor_type;location;lat;lon;timestamp;P1;durP1;ratioP1;P2;durP2;ratioP2
16634;SDS011;8431;52.458;9.998;2022-12-16T00:01:05;15.07;;;9.50;;
16634;SDS011;8431;52.458;9.998;2022-12-16T00:03:33;13.05;;;9.15;;
16634;SDS011;8431;52.458;9.998;2022-12-16T00:06:00;14.02;;;9.85;;
16634;SDS011;8431;52.458;9.998;2022-12-16T00:08:31;13.73;;;9.35;;
16634;SDS011;8431;52.458;9.998;2022-12-16T00:11:00;13.63;;;9.05;;
16634;SDS011;8431;52.458;9.998;2022-12-16T00:13:28;16.02;;;9.45;;
16634;SDS011;8431;52.458;9.998;2022-12-16T00:16:02;17.40;;;9.77;;
16634;SDS011;8431;52.458;9.998;2022-12-16T00:18:31;12.63;;;9.13;;
16634;SDS011;8431;52.458;9.998;2022-12-16T00:20:58;12.90;;;9.00;;
16634;SDS011;8431;52.458;9.998;2022-12-16T00:23:25;13.70;;;9.50;;
16634;SDS011;8431;52.458;9.998;2022-12-16T00:25:54;13.25;;;8.82;;
16634;SDS011;8431;52.458;9.998;2022-12-16T00:28:25;16.33;;;9.00;;
16634;SDS011;8431;52.458;9.998;2022-12-16T00:30:53;12.98;;;8.95;;
16634;SDS011;8431;52.458;9.998;2022-12-16T00:33:21;13.57;;;9.30;;
16634;SDS011;8431;52.458;9.998;2022-12-16T00:35:49;13.07;;;8.80;;
16634;SDS011;8431;52.458;9.998;2022-12-16T00:38:17;15.05;;;8.65;;
16634;SDS011;8431;52.458;9.998;2022-12-16T00:40:44;13.45;;;9.13;;
16634;SDS011;8431;52.458;9.998;2022-12-16T00:43:13;14.68;;;9.30;;
16634;SDS011;8431;52.458;9.998;2022-12-16T00:45:40;11.85;;;8.07;;
16634;SDS011;8431;52.458;9.998;2022-12-16T00:48:07;14.25;;;8.88;;
16634;SDS011;8431;52.458;9.998;2022-12-16T00:50:34;16.88;;;9.60;;
16634;SDS011;8431;52.458;9.998;2022-12-16T00:53:02;14.82;;;9.88;;
16634;SDS011;8431;52.458;9.998;2022-12-16T00:55:29;15.63;;;9.38;;
16634;SDS011;8431;52.458;9.998;2022-12-16T00:57:57;12.05;;;8.73;;
16634;SDS011;8431;52.458;9.998;2022-12-16T01:00:25;14.35;;;8.75;;
16634;SDS011;8431;52.458;9.998;2022-12-16T01:02:52;14.10;;;8.98;;
16634;SDS011;8431;52.458;9.998;2022-12-16T01:05:20;14.18;;;9.38;;
16634;SDS011;8431;52.458;9.998;2022-12-16T01:07:51;11.43;;;8.68;;
16634;SDS011;8431;52.458;9.998;2022-12-16T01:10:18;14.25;;;9.13;;
16634;SDS011;8431;52.458;9.998;2022-12-16T01:12:46;13.50;;;8.43;;
16634;SDS011;8431;52.458;9.998;2022-12-16T01:15:13;13.68;;;8.38;;
16634;SDS011;8431;52.458;9.998;2022-12-16T01:17:42;13.63;;;8.85;;
16634;SDS011;8431;52.458;9.998;2022-12-16T01:20:10;12.00;;;8.23;;
16634;SDS011;8431;52.458;9.998;2022-12-16T01:22:37;12.75;;;8.68;;
16634;SDS011;8431;52.458;9.998;2022-12-16T01:25:04;11.80;;;8.10;;
16634;SDS011;8431;52.458;9.998;2022-12-16T01:27:32;12.23;;;8.52;;
16634;SDS011;8431;52.458;9.998;2022-12-16T01:29:59;13.73;;;9.43;;
16634;SDS011;8431;52.458;9.998;2022-12-16T01:32:27;14.73;;;8.85;;
16634;SDS011;8431;52.458;9.998;2022-12-16T01:34:55;13.60;;;8.73;;
16634;SDS011;8431;52.458;9.998;2022-12-16T01:37:23;13.55;;;8.63;;
16634;SDS011;8431;52.458;9.998;2022-12-16T01:39:50;11.88;;;8.35;;
16634;SDS011;8431;52.458;9.998;2022-12-16T01:42:18;14.02;;;9.48;;
16634;SDS011;8431;52.458;9.998;2022-12-16T01:44:47;15.77;;;8.80;;
16634;SDS011;8431;52.458;9.998;2022-12-16T01:47:16;17.73;;;8.65;;
16634;SDS011;8431;52.458;9.998;2022-12-16T01:49:46;12.25;;;8.93;;
16634;SDS011;8431;52.458;9.998;2022-12-16T01:52:19;14.35;;;9.00;;
16634;SDS011;8431;52.458;9.998;2022-12-16T01:54:48;15.25;;;9.18;;
16634;SDS011;8431;52.458;9.998;2022-12-16T01:57:20;15.15;;;8.98;;
16634;SDS011;8431;52.458;9.998;2022-12-16T01:59:51;13.13;;;8.43;;
16634;SDS011;8431;52.458;9.998;2022-12-16T02:02:21;14.65;;;8.60;;
16634;SDS011;8431;52.458;9.998;2022-12-16T02:04:49;11.00;;;8.00;;
16634;SDS011;8431;52.458;9.998;2022-12-16T02:07:34;16.25;;;8.65;;
16634;SDS011;8431;52.458;9.998;2022-12-16T02:10:02;13.70;;;8.85;;
16634;SDS011;8431;52.458;9.998;2022-12-16T02:12:31;13.27;;;8.27;;
16634;SDS011;8431;52.458;9.998;2022-12-16T02:15:12;17.20;;;9.23;;
16634;SDS011;8431;52.458;9.998;2022-12-16T02:17:51;13.25;;;8.68;;
16634;SDS011;8431;52.458;9.998;2022-12-16T02:26:45;12.27;;;8.15;;
16634;SDS011;8431;52.458;9.998;2022-12-16T02:29:36;15.40;;;9.20;;
16634;SDS011;8431;52.458;9.998;2022-12-16T02:32:30;13.93;;;8.23;;
16634;SDS011;8431;52.458;9.998;2022-12-16T02:35:06;15.20;;;8.88;;
16634;SDS011;8431;52.458;9.998;2022-12-16T02:37:37;14.25;;;8.65;;
16634;SDS011;8431;52.458;9.998;2022-12-16T02:40:10;13.15;;;8.23;;
16634;SDS011;8431;52.458;9.998;2022-12-16T02:42:44;12.45;;;8.40;;
16634;SDS011;8431;52.458;9.998;2022-12-16T02:45:16;9.48;;;7.40;;
16634;SDS011;8431;52.458;9.998;2022-12-16T02:47:46;12.75;;;8.23;;
16634;SDS011;8431;52.458;9.998;2022-12-16T02:50:16;14.90;;;8.27;;
16634;SDS011;8431;52.458;9.998;2022-12-16T02:52:45;11.70;;;8.23;;
16634;SDS011;8431;52.458;9.998;2022-12-16T02:55:13;13.48;;;8.30;;
16634;SDS011;8431;52.458;9.998;2022-12-16T02:57:45;14.20;;;7.70;;
16634;SDS011;8431;52.458;9.998;2022-12-16T03:00:24;11.68;;;7.68;;
16634;SDS011;8431;52.458;9.998;2022-12-16T03:02:56;14.65;;;9.18;;
16634;SDS011;8431;52.458;9.998;2022-12-16T03:05:28;12.25;;;8.48;;
16634;SDS011;8431;52.458;9.998;2022-12-16T03:07:58;13.20;;;8.05;;
16634;SDS011;8431;52.458;9.998;2022-12-16T03:10:30;13.25;;;9.15;;
16634;SDS011;8431;52.458;9.998;2022-12-16T03:13:00;13.55;;;8.52;;
16634;SDS011;8431;52.458;9.998;2022-12-16T03:15:30;13.73;;;8.43;;
16634;SDS011;8431;52.458;9.998;2022-12-16T03:18:01;14.20;;;8.43;;
16634;SDS011;8431;52.458;9.998;2022-12-16T03:20:32;14.95;;;8.95;;
16634;SDS011;8431;52.458;9.998;2022-12-16T03:23:02;12.52;;;8.73;;
16634;SDS011;8431;52.458;9.998;2022-12-16T03:25:33;11.85;;;7.68;;
16634;SDS011;8431;52.458;9.998;2022-12-16T03:28:05;12.25;;;8.52;;
16634;SDS011;8431;52.458;9.998;2022-12-16T03:30:43;12.50;;;7.55;;
16634;SDS011;8431;52.458;9.998;2022-12-16T03:33:17;15.20;;;8.38;;
16634;SDS011;8431;52.458;9.998;2022-12-16T03:35:50;12.45;;;7.47;;
16634;SDS011;8431;52.458;9.998;2022-12-16T03:38:22;10.70;;;7.45;;
16634;SDS011;8431;52.458;9.998;2022-12-16T03:40:51;11.38;;;7.43;;
16634;SDS011;8431;52.458;9.998;2022-12-16T03:43:20;11.93;;;8.20;;
16634;SDS011;8431;52.458;9.998;2022-12-16T03:45:49;12.15;;;7.43;;
16634;SDS011;8431;52.458;9.998;2022-12-16T03:48:23;9.73;;;6.90;;
16634;SDS011;8431;52.458;9.998;2022-12-16T03:50:51;11.68;;;8.02;;
16634;SDS011;8431;52.458;9.998;2022-12-16T03:53:18;13.75;;;8.25;;
16634;SDS011;8431;52.458;9.998;2022-12-16T03:55:48;13.73;;;7.68;;
16634;SDS011;8431;52.458;9.998;2022-12-16T03:58:15;10.35;;;7.38;;
16634;SDS011;8431;52.458;9.998;2022-12-16T04:00:42;11.63;;;7.88;;
16634;SDS011;8431;52.458;9.998;2022-12-16T04:03:09;12.93;;;7.90;;
16634;SDS011;8431;52.458;9.998;2022-12-16T04:05:38;11.07;;;7.45;;
16634;SDS011;8431;52.458;9.998;2022-12-16T04:08:05;10.55;;;7.47;;
16634;SDS011;8431;52.458;9.998;2022-12-16T04:10:32;8.52;;;7.00;;
16634;SDS011;8431;52.458;9.998;2022-12-16T04:13:16;11.05;;;7.10;;
16634;SDS011;8431;52.458;9.998;2022-12-16T04:16:00;10.00;;;7.47;;
16634;SDS011;8431;52.458;9.998;2022-12-16T04:18:45;9.88;;;7.50;;
16634;SDS011;8431;52.458;9.998;2022-12-16T04:21:31;10.68;;;7.25;;
16634;SDS011;8431;52.458;9.998;2022-12-16T04:24:17;12.98;;;8.20;;
16634;SDS011;8431;52.458;9.998;2022-12-16T04:26:46;11.80;;;7.93;;
16634;SDS011;8431;52.458;9.998;2022-12-16T04:29:31;11.15;;;7.25;;
16634;SDS011;8431;52.458;9.998;2022-12-16T04:32:18;13.25;;;7.43;;
16634;SDS011;8431;52.458;9.998;2022-12-16T04:34:46;10.73;;;7.50;;
16634;SDS011;8431;52.458;9.998;2022-12-16T04:37:13;13.10;;;8.00;;
16634;SDS011;8431;52.458;9.998;2022-12-16T04:39:57;12.23;;;7.78;;
16634;SDS011;8431;52.458;9.998;2022-12-16T04:42:42;13.43;;;7.82;;
16634;SDS011;8431;52.458;9.998;2022-12-16T04:45:25;10.63;;;7.50;;
16634;SDS011;8431;52.458;9.998;2022-12-16T04:48:10;12.05;;;8.23;;
16634;SDS011;8431;52.458;9.998;2022-12-16T04:50:54;9.75;;;6.50;;
16634;SDS011;8431;52.458;9.998;2022-12-16T04:53:39;10.35;;;7.05;;
16634;SDS011;8431;52.458;9.998;2022-12-16T04:56:24;11.35;;;7.50;;
16634;SDS011;8431;52.458;9.998;2022-12-16T04:59:08;12.77;;;7.40;;
16634;SDS011;8431;52.458;9.998;2022-12-16T05:01:53;11.02;;;7.88;;
16634;SDS011;8431;52.458;9.998;2022-12-16T05:04:37;12.07;;;8.07;;
16634;SDS011;8431;52.458;9.998;2022-12-16T05:07:21;9.02;;;6.82;;
16634;SDS011;8431;52.458;9.998;2022-12-16T05:10:07;15.23;;;7.28;;
16634;SDS011;8431;52.458;9.998;2022-12-16T05:12:52;12.93;;;7.90;;
16634;SDS011;8431;52.458;9.998;2022-12-16T05:15:37;12.57;;;7.60;;
16634;SDS011;8431;52.458;9.998;2022-12-16T05:18:22;12.02;;;7.28;;
16634;SDS011;8431;52.458;9.998;2022-12-16T05:21:21;12.40;;;7.45;;
16634;SDS011;8431;52.458;9.998;2022-12-16T05:24:05;10.60;;;7.10;;
16634;SDS011;8431;52.458;9.998;2022-12-16T05:26:52;12.27;;;7.72;;
16634;SDS011;8431;52.458;9.998;2022-12-16T05:29:36;10.45;;;7.50;;
16634;SDS011;8431;52.458;9.998;2022-12-16T05:32:21;12.02;;;7.78;;
16634;SDS011;8431;52.458;9.998;2022-12-16T05:35:05;10.85;;;7.43;;
16634;SDS011;8431;52.458;9.998;2022-12-16T05:37:49;14.23;;;7.60;;
16634;SDS011;8431;52.458;9.998;2022-12-16T05:40:33;13.85;;;7.40;;
16634;SDS011;8431;52.458;9.998;2022-12-16T05:43:19;12.77;;;6.90;;
16634;SDS011;8431;52.458;9.998;2022-12-16T05:46:03;9.90;;;6.72;;
16634;SDS011;8431;52.458;9.998;2022-12-16T05:48:48;12.05;;;7.22;;
16634;SDS011;8431;52.458;9.998;2022-12-16T05:51:47;13.23;;;7.80;;
16634;SDS011;8431;52.458;9.998;2022-12-16T05:54:31;13.75;;;7.35;;
16634;SDS011;8431;52.458;9.998;2022-12-16T05:57:16;10.40;;;6.70;;
16634;SDS011;8431;52.458;9.998;2022-12-16T06:00:02;10.13;;;6.95;;
16634;SDS011;8431;52.458;9.998;2022-12-16T06:02:48;9.88;;;6.55;;
16634;SDS011;8431;52.458;9.998;2022-12-16T06:05:32;11.32;;;7.10;;
16634;SDS011;8431;52.458;9.998;2022-12-16T06:08:17;12.05;;;7.47;;
16634;SDS011;8431;52.458;9.998;2022-12-16T06:11:01;9.43;;;6.68;;
16634;SDS011;8431;52.458;9.998;2022-12-16T06:13:45;11.90;;;6.28;;
16634;SDS011;8431;52.458;9.998;2022-12-16T06:16:31;9.98;;;6.55;;
16634;SDS011;8431;52.458;9.998;2022-12-16T06:19:15;11.52;;;7.00;;
16634;SDS011;8431;52.458;9.998;2022-12-16T06:22:00;11.90;;;6.93;;
16634;SDS011;8431;52.458;9.998;2022-12-16T06:24:44;12.30;;;7.85;;
16634;SDS011;8431;52.458;9.998;2022-12-16T06:27:29;9.82;;;7.07;;
16634;SDS011;8431;52.458;9.998;2022-12-16T06:30:14;12.88;;;8.43;;
16634;SDS011;8431;52.458;9.998;2022-12-16T06:33:00;13.10;;;7.10;;
16634;SDS011;8431;52.458;9.998;2022-12-16T06:35:44;10.85;;;7.03;;
16634;SDS011;8431;52.458;9.998;2022-12-16T06:38:28;12.05;;;7.65;;
16634;SDS011;8431;52.458;9.998;2022-12-16T06:41:13;13.25;;;7.68;;
16634;SDS011;8431;52.458;9.998;2022-12-16T06:43:57;11.18;;;7.00;;
16634;SDS011;8431;52.458;9.998;2022-12-16T06:46:41;11.27;;;6.68;;
16634;SDS011;8431;52.458;9.998;2022-12-16T06:49:27;13.18;;;8.35;;
16634;SDS011;8431;52.458;9.998;2022-12-16T06:52:11;16.17;;;9.23;;
16634;SDS011;8431;52.458;9.998;2022-12-16T06:54:55;16.33;;;8.73;;
16634;SDS011;8431;52.458;9.998;2022-12-16T06:57:40;13.52;;;8.77;;
16634;SDS011;8431;52.458;9.998;2022-12-16T07:00:24;13.95;;;7.47;;
16634;SDS011;8431;52.458;9.998;2022-12-16T07:03:08;11.38;;;7.45;;
16634;SDS011;8431;52.458;9.998;2022-12-16T07:05:54;10.70;;;7.57;;
16634;SDS011;8431;52.458;9.998;2022-12-16T07:08:38;11.18;;;7.15;;
16634;SDS011;8431;52.458;9.998;2022-12-16T07:11:23;11.07;;;7.65;;
16634;SDS011;8431;52.458;9.998;2022-12-16T07:14:07;11.02;;;7.78;;
16634;SDS011;8431;52.458;9.998;2022-12-16T07:17:04;12.75;;;8.45;;
16634;SDS011;8431;52.458;9.998;2022-12-16T07:19:48;14.23;;;7.97;;
16634;SDS011;8431;52.458;9.998;2022-12-16T07:22:42;14.88;;;9.23;;
16634;SDS011;8431;52.458;9.998;2022-12-16T07:25:27;16.17;;;9.35;;
16634;SDS011;8431;52.458;9.998;2022-12-16T07:28:31;14.52;;;8.57;;
16634;SDS011;8431;52.458;9.998;2022-12-16T07:31:27;13.50;;;8.48;;
16634;SDS011;8431;52.458;9.998;2022-12-16T07:34:18;18.85;;;9.65;;
16634;SDS011;8431;52.458;9.998;2022-12-16T07:37:03;14.30;;;9.48;;
16634;SDS011;8431;52.458;9.998;2022-12-16T07:40:01;14.23;;;9.40;;
16634;SDS011;8431;52.458;9.998;2022-12-16T07:43:04;14.90;;;9.38;;
16634;SDS011;8431;52.458;9.998;2022-12-16T07:45:55;13.55;;;9.23;;
16634;SDS011;8431;52.458;9.998;2022-12-16T07:48:57;14.35;;;9.40;;
16634;SDS011;8431;52.458;9.998;2022-12-16T07:51:54;15.25;;;9.20;;
16634;SDS011;8431;52.458;9.998;2022-12-16T07:57:49;15.52;;;9.02;;
16634;SDS011;8431;52.458;9.998;2022-12-16T08:00:34;13.88;;;9.23;;
16634;SDS011;8431;52.458;9.998;2022-12-16T08:03:18;14.63;;;9.13;;
16634;SDS011;8431;52.458;9.998;2022-12-16T08:06:02;14.25;;;9.00;;
16634;SDS011;8431;52.458;9.998;2022-12-16T08:08:47;17.23;;;10.00;;
16634;SDS011;8431;52.458;9.998;2022-12-16T08:11:32;18.42;;;9.68;;
16634;SDS011;8431;52.458;9.998;2022-12-16T08:14:17;15.20;;;10.27;;
16634;SDS011;8431;52.458;9.998;2022-12-16T08:17:01;15.00;;;10.35;;
16634;SDS011;8431;52.458;9.998;2022-12-16T08:19:45;16.48;;;11.32;;
16634;SDS011;8431;52.458;9.998;2022-12-16T08:22:30;15.63;;;11.00;;
16634;SDS011;8431;52.458;9.998;2022-12-16T08:25:14;16.80;;;10.77;;
16634;SDS011;8431;52.458;9.998;2022-12-16T08:28:00;14.20;;;11.05;;
16634;SDS011;8431;52.458;9.998;2022-12-16T08:30:48;18.08;;;11.52;;
16634;SDS011;8431;52.458;9.998;2022-12-16T08:33:33;24.25;;;14.85;;
16634;SDS011;8431;52.458;9.998;2022-12-16T08:36:17;22.83;;;15.35;;
16634;SDS011;8431;52.458;9.998;2022-12-16T08:39:02;27.02;;;16.88;;
16634;SDS011;8431;52.458;9.998;2022-12-16T08:41:47;24.70;;;16.02;;
16634;SDS011;8431;52.458;9.998;2022-12-16T08:44:32;24.83;;;14.85;;
16634;SDS011;8431;52.458;9.998;2022-12-16T08:47:17;21.77;;;14.80;;
16634;SDS011;8431;52.458;9.998;2022-12-16T08:50:02;21.85;;;14.25;;
16634;SDS011;8431;52.458;9.998;2022-12-16T08:52:47;20.95;;;13.98;;
16634;SDS011;8431;52.458;9.998;2022-12-16T08:55:31;21.67;;;13.70;;
16634;SDS011;8431;52.458;9.998;2022-12-16T08:58:16;19.73;;;13.43;;
16634;SDS011;8431;52.458;9.998;2022-12-16T09:01:02;19.30;;;14.38;;
16634;SDS011;8431;52.458;9.998;2022-12-16T09:03:46;20.80;;;14.02;;
16634;SDS011;8431;52.458;9.998;2022-12-16T09:06:31;17.75;;;12.13;;
16634;SDS011;8431;52.458;9.998;2022-12-16T09:09:15;18.23;;;12.30;;
16634;SDS011;8431;52.458;9.998;2022-12-16T09:11:59;18.80;;;13.38;;
16634;SDS011;8431;52.458;9.998;2022-12-16T09:14:44;18.35;;;13.05;;
16634;SDS011;8431;52.458;9.998;2022-12-16T09:17:29;20.85;;;13.48;;
16634;SDS011;8431;52.458;9.998;2022-12-16T09:20:14;18.80;;;13.18;;
16634;SDS011;8431;52.458;9.998;2022-12-16T09:23:00;18.85;;;12.88;;
16634;SDS011;8431;52.458;9.998;2022-12-16T09:25:45;16.98;;;13.20;;
16634;SDS011;8431;52.458;9.998;2022-12-16T09:28:29;17.67;;;13.35;;
16634;SDS011;8431;52.458;9.998;2022-12-16T09:31:13;20.08;;;14.65;;
16634;SDS011;8431;52.458;9.998;2022-12-16T09:34:00;18.38;;;13.30;;
16634;SDS011;8431;52.458;9.998;2022-12-16T09:36:44;20.52;;;14.20;;
16634;SDS011;8431;52.458;9.998;2022-12-16T09:39:29;20.83;;;14.45;;
16634;SDS011;8431;52.458;9.998;2022-12-16T09:42:16;26.10;;;16.63;;
16634;SDS011;8431;52.458;9.998;2022-12-16T09:45:07;25.77;;;14.48;;
16634;SDS011;8431;52.458;9.998;2022-12-16T09:48:10;22.58;;;14.75;;
16634;SDS011;8431;52.458;9.998;2022-12-16T09:51:01;23.00;;;16.55;;
16634;SDS011;8431;52.458;9.998;2022-12-16T09:53:47;23.73;;;16.42;;
16634;SDS011;8431;52.458;9.998;2022-12-16T09:56:35;22.55;;;15.25;;
16634;SDS011;8431;52.458;9.998;2022-12-16T09:59:21;23.20;;;16.50;;
16634;SDS011;8431;52.458;9.998;2022-12-16T10:02:09;24.00;;;17.55;;
16634;SDS011;8431;52.458;9.998;2022-12-16T10:04:54;22.45;;;16.20;;
16634;SDS011;8431;52.458;9.998;2022-12-16T10:10:34;25.27;;;16.10;;
16634;SDS011;8431;52.458;9.998;2022-12-16T10:13:31;25.25;;;17.80;;
16634;SDS011;8431;52.458;9.998;2022-12-16T10:16:20;24.45;;;17.15;;
16634;SDS011;8431;52.458;9.998;2022-12-16T10:19:13;26.58;;;17.23;;
16634;SDS011;8431;52.458;9.998;2022-12-16T10:22:09;22.17;;;16.42;;
16634;SDS011;8431;52.458;9.998;2022-12-16T10:25:05;28.20;;;16.42;;
16634;SDS011;8431;52.458;9.998;2022-12-16T10:28:10;23.80;;;15.68;;
16634;SDS011;8431;52.458;9.998;2022-12-16T10:30:59;21.67;;;15.30;;
16634;SDS011;8431;52.458;9.998;2022-12-16T10:33:40;23.58;;;14.85;;
16634;SDS011;8431;52.458;9.998;2022-12-16T10:36:39;21.75;;;15.27;;
16634;SDS011;8431;52.458;9.998;2022-12-16T10:39:26;25.58;;;16.92;;
16634;SDS011;8431;52.458;9.998;2022-12-16T10:42:16;22.95;;;16.10;;
16634;SDS011;8431;52.458;9.998;2022-12-16T10:45:06;22.58;;;16.40;;
16634;SDS011;8431;52.458;9.998;2022-12-16T10:47:58;24.90;;;16.27;;
16634;SDS011;8431;52.458;9.998;2022-12-16T10:50:42;24.55;;;16.00;;
16634;SDS011;8431;52.458;9.998;2022-12-16T10:53:26;24.38;;;17.13;;
16634;SDS011;8431;52.458;9.998;2022-12-16T10:56:13;25.02;;;16.95;;
16634;SDS011;8431;52.458;9.998;2022-12-16T10:59:15;36.10;;;16.38;;
16634;SDS011;8431;52.458;9.998;2022-12-16T11:02:01;23.40;;;16.48;;
16634;SDS011;8431;52.458;9.998;2022-12-16T11:08:23;30.45;;;17.45;;
16634;SDS011;8431;52.458;9.998;2022-12-16T11:11:13;27.02;;;17.67;;
16634;SDS011;8431;52.458;9.998;2022-12-16T11:14:13;27.13;;;18.73;;
16634;SDS011;8431;52.458;9.998;2022-12-16T11:17:11;25.83;;;16.85;;
16634;SDS011;8431;52.458;9.998;2022-12-16T11:20:10;23.00;;;17.00;;
16634;SDS011;8431;52.458;9.998;2022-12-16T11:26:09;29.08;;;17.35;;
16634;SDS011;8431;52.458;9.998;2022-12-16T11:29:09;28.25;;;18.50;;
16634;SDS011;8431;52.458;9.998;2022-12-16T11:32:05;28.17;;;17.83;;
16634;SDS011;8431;52.458;9.998;2022-12-16T11:35:23;29.10;;;17.33;;
16634;SDS011;8431;52.458;9.998;2022-12-16T11:38:11;23.73;;;17.67;;
16634;SDS011;8431;52.458;9.998;2022-12-16T11:41:12;31.38;;;18.85;;
16634;SDS011;8431;52.458;9.998;2022-12-16T11:44:05;25.65;;;17.20;;
16634;SDS011;8431;52.458;9.998;2022-12-16T11:46:56;28.77;;;17.60;;
16634;SDS011;8431;52.458;9.998;2022-12-16T11:49:42;32.60;;;17.92;;
16634;SDS011;8431;52.458;9.998;2022-12-16T11:52:26;30.33;;;19.05;;
16634;SDS011;8431;52.458;9.998;2022-12-16T11:55:13;27.73;;;18.15;;
16634;SDS011;8431;52.458;9.998;2022-12-16T11:58:04;28.48;;;18.13;;
16634;SDS011;8431;52.458;9.998;2022-12-16T12:00:57;27.48;;;19.02;;
16634;SDS011;8431;52.458;9.998;2022-12-16T12:03:46;29.80;;;18.33;;
16634;SDS011;8431;52.458;9.998;2022-12-16T12:06:38;30.45;;;18.50;;
16634;SDS011;8431;52.458;9.998;2022-12-16T12:09:34;30.38;;;18.45;;
16634;SDS011;8431;52.458;9.998;2022-12-16T12:12:36;28.17;;;18.98;;
16634;SDS011;8431;52.458;9.998;2022-12-16T12:15:26;29.23;;;18.70;;
16634;SDS011;8431;52.458;9.998;2022-12-16T12:18:34;32.55;;;19.83;;
16634;SDS011;8431;52.458;9.998;2022-12-16T12:21:25;26.13;;;18.70;;
16634;SDS011;8431;52.458;9.998;2022-12-16T12:24:19;30.63;;;19.58;;
16634;SDS011;8431;52.458;9.998;2022-12-16T12:27:12;27.70;;;18.30;;
16634;SDS011;8431;52.458;9.998;2022-12-16T12:30:04;29.42;;;19.73;;
16634;SDS011;8431;52.458;9.998;2022-12-16T12:32:56;28.65;;;18.92;;
16634;SDS011;8431;52.458;9.998;2022-12-16T12:35:55;25.25;;;18.75;;
16634;SDS011;8431;52.458;9.998;2022-12-16T12:38:47;24.15;;;18.63;;
16634;SDS011;8431;52.458;9.998;2022-12-16T12:41:51;29.40;;;18.73;;
16634;SDS011;8431;52.458;9.998;2022-12-16T12:44:46;26.60;;;18.50;;
16634;SDS011;8431;52.458;9.998;2022-12-16T12:47:41;26.80;;;19.30;;
16634;SDS011;8431;52.458;9.998;2022-12-16T12:50:35;28.98;;;18.35;;
16634;SDS011;8431;52.458;9.998;2022-12-16T12:53:30;26.52;;;19.55;;
16634;SDS011;8431;52.458;9.998;2022-12-16T12:56:25;26.00;;;18.55;;
16634;SDS011;8431;52.458;9.998;2022-12-16T12:59:21;24.65;;;18.83;;
16634;SDS011;8431;52.458;9.998;2022-12-16T13:02:10;27.35;;;18.77;;
16634;SDS011;8431;52.458;9.998;2022-12-16T13:05:01;25.92;;;19.20;;
16634;SDS011;8431;52.458;9.998;2022-12-16T13:07:47;24.55;;;18.15;;
16634;SDS011;8431;52.458;9.998;2022-12-16T13:10:35;27.58;;;19.52;;
16634;SDS011;8431;52.458;9.998;2022-12-16T13:13:30;32.15;;;19.15;;
16634;SDS011;8431;52.458;9.998;2022-12-16T13:19:40;26.98;;;19.00;;
16634;SDS011;8431;52.458;9.998;2022-12-16T13:22:27;27.73;;;17.85;;
16634;SDS011;8431;52.458;9.998;2022-12-16T13:25:32;24.30;;;18.17;;
16634;SDS011;8431;52.458;9.998;2022-12-16T13:28:25;25.73;;;17.90;;
16634;SDS011;8431;52.458;9.998;2022-12-16T13:31:12;25.60;;;18.13;;
16634;SDS011;8431;52.458;9.998;2022-12-16T13:34:00;25.73;;;18.05;;
16634;SDS011;8431;52.458;9.998;2022-12-16T13:36:54;25.05;;;18.95;;
16634;SDS011;8431;52.458;9.998;2022-12-16T13:39:40;27.50;;;19.13;;
16634;SDS011;8431;52.458;9.998;2022-12-16T13:42:30;24.70;;;19.20;;
16634;SDS011;8431;52.458;9.998;2022-12-16T13:45:27;23.20;;;17.55;;
16634;SDS011;8431;52.458;9.998;2022-12-16T13:55:02;27.60;;;19.52;;
16634;SDS011;8431;52.458;9.998;2022-12-16T13:58:01;26.75;;;17.80;;
16634;SDS011;8431;52.458;9.998;2022-12-16T14:00:58;24.60;;;16.98;;
16634;SDS011;8431;52.458;9.998;2022-12-16T14:03:49;21.55;;;17.27;;
16634;SDS011;8431;52.458;9.998;2022-12-16T14:06:36;23.13;;;17.38;;
16634;SDS011;8431;52.458;9.998;2022-12-16T14:09:23;23.83;;;17.30;;
16634;SDS011;8431;52.458;9.998;2022-12-16T14:12:18;23.02;;;17.15;;
16634;SDS011;8431;52.458;9.998;2022-12-16T14:15:10;28.08;;;17.25;;
16634;SDS011;8431;52.458;9.998;2022-12-16T14:18:05;26.92;;;18.85;;
16634;SDS011;8431;52.458;9.998;2022-12-16T14:20:59;24.85;;;18.45;;
16634;SDS011;8431;52.458;9.998;2022-12-16T14:23:46;25.50;;;19.33;;
16634;SDS011;8431;52.458;9.998;2022-12-16T14:26:35;24.45;;;18.80;;
16634;SDS011;8431;52.458;9.998;2022-12-16T14:29:23;25.20;;;17.63;;
16634;SDS011;8431;52.458;9.998;2022-12-16T14:32:20;24.00;;;17.77;;
16634;SDS011;8431;52.458;9.998;2022-12-16T14:35:11;24.48;;;17.70;;
16634;SDS011;8431;52.458;9.998;2022-12-16T14:37:58;23.40;;;17.35;;
16634;SDS011;8431;52.458;9.998;2022-12-16T14:41:03;26.83;;;17.95;;
16634;SDS011;8431;52.458;9.998;2022-12-16T14:43:47;24.73;;;17.50;;
16634;SDS011;8431;52.458;9.998;2022-12-16T14:46:33;21.48;;;16.92;;
16634;SDS011;8431;52.458;9.998;2022-12-16T14:49:19;26.35;;;17.75;;
16634;SDS011;8431;52.458;9.998;2022-12-16T14:52:16;23.05;;;17.80;;
16634;SDS011;8431;52.458;9.998;2022-12-16T14:55:14;22.58;;;17.42;;
16634;SDS011;8431;52.458;9.998;2022-12-16T14:58:01;23.80;;;17.52;;
16634;SDS011;8431;52.458;9.998;2022-12-16T15:00:47;23.02;;;17.52;;
16634;SDS011;8431;52.458;9.998;2022-12-16T15:03:34;23.83;;;17.23;;
16634;SDS011;8431;52.458;9.998;2022-12-16T15:06:23;21.85;;;17.27;;
16634;SDS011;8431;52.458;9.998;2022-12-16T15:09:13;24.25;;;16.38;;
16634;SDS011;8431;52.458;9.998;2022-12-16T15:12:03;22.83;;;17.90;;
16634;SDS011;8431;52.458;9.998;2022-12-16T15:14:56;22.70;;;16.95;;
16634;SDS011;8431;52.458;9.998;2022-12-16T15:17:47;22.85;;;17.05;;
16634;SDS011;8431;52.458;9.998;2022-12-16T15:20:36;22.13;;;17.25;;
16634;SDS011;8431;52.458;9.998;2022-12-16T15:23:40;22.45;;;16.42;;
16634;SDS011;8431;52.458;9.998;2022-12-16T15:29:27;24.48;;;18.38;;
16634;SDS011;8431;52.458;9.998;2022-12-16T15:32:28;22.55;;;17.90;;
16634;SDS011;8431;52.458;9.998;2022-12-16T15:35:24;22.90;;;17.33;;
16634;SDS011;8431;52.458;9.998;2022-12-16T15:38:18;24.02;;;17.38;;
16634;SDS011;8431;52.458;9.998;2022-12-16T15:41:13;21.88;;;17.05;;
16634;SDS011;8431;52.458;9.998;2022-12-16T15:44:03;23.73;;;16.67;;
16634;SDS011;8431;52.458;9.998;2022-12-16T15:46:47;23.80;;;17.95;;
16634;SDS011;8431;52.458;9.998;2022-12-16T15:49:34;27.17;;;18.27;;
16634;SDS011;8431;52.458;9.998;2022-12-16T15:52:29;22.88;;;18.13;;
16634;SDS011;8431;52.458;9.998;2022-12-16T15:55:27;24.90;;;18.48;;
16634;SDS011;8431;52.458;9.998;2022-12-16T15:58:20;22.88;;;17.10;;
16634;SDS011;8431;52.458;9.998;2022-12-16T16:01:11;24.92;;;19.23;;
16634;SDS011;8431;52.458;9.998;2022-12-16T16:03:59;21.42;;;17.15;;
16634;SDS011;8431;52.458;9.998;2022-12-16T16:06:44;22.77;;;17.48;;
16634;SDS011;8431;52.458;9.998;2022-12-16T16:09:32;23.65;;;17.05;;
16634;SDS011;8431;52.458;9.998;2022-12-16T16:12:20;23.10;;;17.05;;
16634;SDS011;8431;52.458;9.998;2022-12-16T16:15:06;22.70;;;16.80;;
16634;SDS011;8431;52.458;9.998;2022-12-16T16:17:53;23.42;;;17.80;;
16634;SDS011;8431;52.458;9.998;2022-12-16T16:23:29;24.45;;;18.48;;
16634;SDS011;8431;52.458;9.998;2022-12-16T16:26:15;23.58;;;18.95;;
16634;SDS011;8431;52.458;9.998;2022-12-16T16:29:08;22.70;;;16.83;;
16634;SDS011;8431;52.458;9.998;2022-12-16T16:31:53;27.35;;;19.85;;
16634;SDS011;8431;52.458;9.998;2022-12-16T16:34:39;24.92;;;19.30;;
16634;SDS011;8431;52.458;9.998;2022-12-16T16:37:25;30.67;;;22.63;;
16634;SDS011;8431;52.458;9.998;2022-12-16T16:40:30;28.80;;;22.42;;
16634;SDS011;8431;52.458;9.998;2022-12-16T16:43:15;35.22;;;24.92;;
16634;SDS011;8431;52.458;9.998;2022-12-16T16:46:02;30.73;;;22.35;;
16634;SDS011;8431;52.458;9.998;2022-12-16T16:49:03;33.13;;;23.92;;
16634;SDS011;8431;52.458;9.998;2022-12-16T16:51:48;30.17;;;23.08;;
16634;SDS011;8431;52.458;9.998;2022-12-16T16:54:32;31.58;;;22.85;;